Date,TemperatureHighF,TemperatureAvgF,TemperatureLowF,DewpointHighF,DewpointAvgF,DewpointLowF,HumidityHigh,HumidityAvg,HumidityLow,PressureMaxIn,PressureMinIn,WindSpeedMaxMPH,WindSpeedAvgMPH,GustSpeedMaxMPH,PrecipitationSumIn
2013-1-1,38,34,25,31,26,15,87,72,59,30.12,29.96,8,3,11,0.09
2013-1-2,29,26,24,18,16,15,74,67,60,30.31,30.10,9,3,13,0.00
2013-1-3,33,26,17,23,16,13,87,68,54,30.31,30.18,7,2,12,0.00
2013-1-4,35,33,31,25,22,20,77,66,56,30.20,30.08,10,6,15,0.00
2013-1-5,37,32,28,25,23,20,82,69,59,30.45,30.17,8,4,14,0.03
2013-1-6,41,35,28,30,27,24,86,73,59,30.29,30.07,7,2,13,0.07
2013-1-7,41,37,28,32,28,24,86,71,56,30.48,30.18,7,3,10,0.04
2013-1-8,44,32,23,29,26,21,94,79,55,30.49,30.42,6,1,11,0.00
2013-1-9,43,33,24,36,29,22,93,85,62,30.47,30.24,8,2,10,0.00
2013-1-10,44,39,34,30,28,26,83,65,53,30.65,30.41,6,3,10,0.00
2013-1-11,43,38,33,38,32,28,97,81,61,30.58,30.18,6,2,10,0.33
2013-1-12,43,40,37,42,39,37,99,98,97,30.26,30.18,4,1,5,0.01
2013-1-13,50,44,39,49,44,39,99,98,94,30.21,30.03,4,1,6,0.00
2013-1-14,50,46,37,49,39,27,99,76,52,30.39,29.97,9,4,18,0.11
2013-1-15,37,34,31,30,26,24,91,70,63,30.45,30.28,7,2,11,0.00
2013-1-16,34,32,30,33,31,28,97,95,92,30.28,29.96,7,2,8,0.00
2013-1-17,39,35,32,33,30,28,96,82,71,30.21,30.04,8,2,11,0.30
2013-1-18,32,27,23,28,14,9,86,60,45,30.54,30.10,10,5,15,0.00
2013-1-19,50,39,24,29,22,12,81,53,36,30.42,29.91,14,5,21,0.05
2013-1-20,47,39,25,30,20,11,59,48,31,30.17,29.77,15,7,27,0.00
2013-1-21,28,25,20,24,15,7,92,68,54,30.18,29.96,9,3,13,0.00
2013-1-22,20,14,9,8,1,-5,73,55,43,30.34,30.00,12,6,22,0.00
2013-1-23,18,12,8,5,2,-2,75,63,44,30.38,30.25,10,4,16,0.00
2013-1-24,23,16,10,9,5,0,85,63,37,30.60,30.22,12,4,23,0.00
2013-1-25,19,14,11,14,7,2,90,74,59,30.59,30.16,5,2,8,0.00
2013-1-26,26,18,13,13,11,8,89,73,54,30.51,30.18,7,2,11,0.01
2013-1-27,31,21,10,18,13,7,90,72,52,30.68,30.51,7,2,9,0.01
2013-1-28,33,29,22,33,26,16,97,90,75,30.57,30.11,5,1,8,0.02
2013-1-29,42,37,33,41,36,32,98,97,93,30.22,30.05,5,1,8,0.27
2013-1-30,63,51,36,59,50,36,99,95,83,30.05,29.28,13,4,27,0.64
2013-1-31,55,37,26,54,27,13,96,68,46,29.87,29.15,14,8,29,0.46
2013-2-1,27,24,18,21,12,6,87,61,46,30.37,29.85,15,7,25,0.00
2013-2-2,23,19,14,19,10,6,91,68,53,30.39,30.11,9,4,16,0.00
2013-2-3,30,24,20,25,20,12,93,82,63,30.11,29.88,10,3,18,0.01
2013-2-4,28,24,20,23,13,8,90,64,50,30.11,30.00,11,4,18,0.00
2013-2-5,31,28,25,29,25,22,94,89,80,30.04,29.93,5,1,7,0.02
2013-2-6,36,31,25,28,21,13,94,68,43,30.44,30.00,10,4,16,0.01
2013-2-7,34,28,21,21,16,13,80,62,47,30.55,30.33,9,4,21,0.00
2013-2-8,39,34,28,34,30,21,97,86,65,30.33,29.83,12,4,20,0.03
2013-2-9,30,25,20,24,17,14,88,72,59,30.51,29.97,12,6,15,0.02
2013-2-10,38,26,11,20,14,8,90,65,36,30.58,30.30,7,2,11,0.09
2013-2-11,42,38,34,40,34,18,97,84,45,30.30,29.74,9,3,20,0.10
2013-2-12,40,37,30,28,25,23,78,62,55,30.08,29.86,10,5,21,0.00
2013-2-13,41,33,24,32,27,22,96,80,61,30.05,29.78,5,1,8,0.00
2013-2-14,42,35,29,32,30,27,96,81,63,30.07,29.83,7,3,11,0.04
2013-2-15,46,40,34,34,30,25,94,67,45,30.08,30.00,8,4,14,0.05
2013-2-16,35,32,27,33,21,11,94,66,47,30.08,29.93,7,3,12,0.00
2013-2-17,27,23,18,16,9,2,72,55,38,30.24,29.91,16,8,24,0.01
2013-2-18,32,20,16,12,8,5,65,58,41,30.42,30.24,9,5,16,0.00
2013-2-20,27,25,23,18,13,11,72,61,53,30.17,29.94,13,8,24,0.00
2013-2-21,34,27,23,18,16,13,73,63,50,30.45,30.14,12,6,18,0.00
2013-2-22,34,28,22,27,21,16,81,73,61,30.49,30.30,7,3,13,0.00
2013-2-23,39,36,34,37,33,27,97,91,76,30.30,29.93,6,2,8,0.02
2013-2-24,39,35,32,35,28,20,98,77,53,30.14,29.90,12,5,19,0.00
2013-2-25,44,35,30,29,25,22,76,65,46,30.32,30.14,7,3,11,0.00
2013-2-26,42,35,28,34,28,23,93,79,57,30.33,29.84,12,4,24,0.27
2013-2-27,42,40,35,40,37,33,96,91,85,29.84,29.62,8,3,15,0.33
2013-2-28,43,38,35,37,34,29,96,85,59,29.76,29.65,8,3,11,0.04
2013-3-1,40,37,32,33,29,23,89,74,60,29.95,29.75,9,4,13,0.00
2013-3-2,35,32,29,24,22,21,77,69,59,29.95,29.87,9,5,12,0.00
2013-3-3,34,30,27,22,19,17,76,65,54,29.96,29.85,11,7,16,0.00
2013-3-4,36,30,26,23,20,15,76,64,53,30.11,29.95,12,8,22,0.00
2013-3-5,42,34,30,26,24,22,75,67,52,30.16,29.99,7,3,11,0.00
2013-3-6,44,39,35,32,29,26,72,66,56,30.12,29.91,8,4,19,0.00
2013-3-7,42,38,33,27,25,21,65,58,48,30.25,30.11,10,5,16,0.00
2013-3-8,42,36,30,27,24,21,82,62,51,30.42,30.23,13,6,24,0.00
2013-3-9,56,41,26,28,24,21,87,55,26,30.46,30.34,5,2,10,0.00
2013-3-10,59,45,31,31,25,22,77,49,27,30.39,30.26,11,4,15,0.00
2013-3-11,58,50,42,48,36,27,78,61,35,30.29,29.96,13,5,25,0.00
2013-3-12,55,50,41,52,44,30,94,81,66,30.00,29.81,14,7,24,0.50
2013-3-13,44,38,32,32,26,16,83,63,40,30.05,29.90,14,5,22,0.00
2013-3-14,39,32,27,20,15,10,72,50,31,30.14,30.02,16,9,24,0.00
2013-3-15,45,36,25,31,23,14,71,60,50,30.15,29.82,10,4,15,0.00
2013-3-16,40,33,30,30,27,22,94,79,59,30.03,29.82,9,2,11,0.08
2013-3-17,36,32,29,28,22,18,93,68,50,30.39,30.03,7,2,13,0.09
2013-3-18,33,29,25,30,20,13,94,71,47,30.43,29.99,10,3,15,0.00
2013-3-19,48,37,32,36,29,16,96,75,29,29.99,29.76,14,5,25,0.41
2013-3-20,42,35,30,23,19,15,68,54,35,29.99,29.86,13,6,22,0.00
2013-3-21,34,30,24,22,16,10,69,56,40,29.93,29.79,10,5,18,0.00
2013-3-22,38,32,27,23,20,17,81,63,47,30.04,29.87,12,6,23,0.00
2013-3-23,44,36,31,24,21,18,68,55,38,30.08,29.99,11,6,19,0.00
2013-3-24,46,38,30,23,21,19,68,51,34,30.08,29.75,6,2,13,0.00
2013-3-25,39,36,32,34,30,23,95,80,52,29.75,29.60,6,3,10,0.14
2013-3-26,50,40,34,35,31,27,93,72,44,30.02,29.74,13,3,16,0.00
2013-3-27,47,41,36,33,29,25,83,64,42,30.13,30.00,14,6,20,0.00
2013-3-28,46,40,36,33,29,25,84,64,45,30.27,30.10,9,4,13,0.00
2013-3-29,50,44,39,34,29,26,72,57,41,30.28,30.19,9,5,14,0.00
2013-3-30,56,43,30,30,25,19,88,55,25,30.30,30.16,7,2,18,0.00
2013-3-31,52,42,32,44,35,24,95,76,46,30.18,29.80,10,2,15,0.21
2013-4-1,51,44,33,45,31,12,96,66,27,30.04,29.75,13,6,22,0.01
2013-4-2,41,34,28,18,14,11,63,44,30,30.23,30.02,12,6,20,0.00
2013-4-3,43,35,29,18,14,10,59,42,28,30.46,30.20,12,6,19,0.00
2013-4-4,53,39,26,22,17,14,70,44,25,30.49,30.12,9,4,13,0.00
2013-4-5,59,46,33,26,21,16,66,39,20,30.15,29.88,13,5,20,0.00
2013-4-6,52,42,30,22,16,11,56,37,19,30.41,30.14,8,4,13,0.00
2013-4-7,64,53,42,42,32,17,58,44,31,30.30,29.98,12,7,22,0.00
2013-4-8,74,61,42,48,42,38,87,54,30,30.17,29.97,9,3,15,0.00
2013-4-9,81,71,60,51,46,38,67,43,25,30.09,29.90,12,5,21,0.00
2013-4-10,82,69,60,62,55,50,94,64,42,29.98,29.81,17,4,21,0.58
2013-4-11,61,54,50,59,50,45,96,86,78,30.02,29.84,10,3,14,0.04
2013-4-12,50,47,44,46,44,41,93,89,83,29.96,29.73,13,5,20,0.40
2013-4-13,54,48,43,45,36,33,93,64,49,30.03,29.87,10,4,15,0.00
2013-4-14,57,49,41,37,31,26,73,51,36,30.23,30.03,13,5,20,0.00
2013-4-15,65,54,46,46,38,30,68,55,49,30.35,30.23,9,5,13,0.00
2013-4-16,58,54,53,50,46,43,79,74,65,30.35,30.27,9,6,16,0.00
2013-4-18,63,59,58,56,52,36,87,76,43,30.28,30.05,8,6,14,0.00
2013-4-19,73,64,50,64,57,44,93,79,67,30.05,29.56,13,8,24,0.64
2013-4-20,53,47,39,44,31,21,81,54,36,30.45,29.81,11,6,20,0.01
2013-4-21,53,42,31,28,23,20,69,47,31,30.68,30.45,9,3,14,0.00
2013-4-22,56,47,38,32,29,22,75,51,32,30.68,30.50,9,5,18,0.00
2013-4-23,62,50,41,43,37,30,77,62,39,30.52,30.17,8,3,14,0.00
2013-4-24,71,56,42,59,47,39,93,75,48,30.17,29.79,13,4,22,0.34
2013-4-25,59,50,42,40,32,26,73,52,30,30.34,30.09,10,4,16,0.00
2013-4-26,61,52,43,36,30,21,75,45,22,30.52,30.35,6,3,12,0.00
2013-4-27,69,55,39,40,33,27,77,47,23,30.51,30.32,6,2,9,0.00
2013-4-28,68,57,43,46,40,34,82,56,30,30.34,30.19,12,4,20,0.01
2013-4-29,58,55,52,53,48,34,90,77,47,30.22,30.13,7,4,11,0.04
2013-4-30,67,59,54,52,49,35,92,71,45,30.38,30.21,8,4,13,0.00
2013-5-1,72,60,45,41,31,24,64,36,17,30.50,30.38,7,3,11,0.00
2013-5-2,74,61,44,46,42,38,87,53,27,30.52,30.37,10,3,18,0.00
2013-5-3,71,60,51,47,39,25,79,48,22,30.46,30.32,9,4,12,0.00
2013-5-4,56,48,43,39,37,34,82,67,45,30.40,30.36,2,1,4,0.00
2013-5-6,73,67,61,52,50,44,72,55,46,30.26,30.13,6,4,11,0.00
2013-5-7,76,65,53,57,52,48,89,66,41,30.19,30.05,10,4,15,0.00
2013-5-8,64,60,54,60,57,52,95,89,77,30.11,29.96,8,2,12,0.62
2013-5-9,68,59,51,59,54,50,99,86,60,30.04,29.96,8,2,15,0.00
2013-5-10,76,64,55,62,58,54,99,83,47,30.08,29.91,7,2,11,0.16
2013-5-11,69,64,59,63,59,51,95,85,61,29.93,29.75,8,4,15,0.28
2013-5-12,60,53,45,52,38,26,83,57,32,30.04,29.78,10,5,19,0.00
2013-5-13,53,46,40,33,28,24,69,51,34,30.23,30.04,7,3,19,0.00
2013-5-14,61,48,34,39,29,21,86,51,24,30.27,30.08,7,2,13,0.00
2013-5-15,75,62,50,58,49,39,80,63,54,30.12,29.71,10,4,15,0.00
2013-5-16,83,69,56,60,50,36,96,58,20,29.97,29.80,7,3,12,0.00
2013-5-17,72,63,53,45,41,36,65,45,28,30.26,29.97,6,2,9,0.00
2013-5-18,67,61,56,56,48,42,77,61,49,30.31,30.25,5,3,9,0.00
2013-5-19,64,61,59,59,56,53,89,84,77,30.30,30.19,7,4,11,0.00
2013-5-20,80,69,60,66,62,57,91,79,59,30.19,30.00,6,2,9,0.00
2013-5-21,89,76,62,70,65,60,96,72,44,30.02,29.84,8,3,14,0.00
2013-5-22,89,78,66,70,65,58,95,69,38,29.95,29.80,12,4,23,0.25
2013-5-23,76,69,62,66,64,58,96,85,66,29.90,29.76,8,3,12,0.51
2013-5-24,62,51,44,61,46,38,96,84,64,30.18,29.76,9,4,15,0.16
2013-5-25,60,51,43,40,36,31,80,57,35,30.19,30.11,11,6,24,0.00
2013-5-26,68,56,45,39,35,30,71,47,26,30.29,30.15,9,4,19,0.00
2013-5-27,71,58,41,45,39,31,90,55,26,30.35,30.20,6,2,11,0.00
2013-5-28,60,56,53,59,53,45,97,88,61,30.25,30.13,5,1,7,0.30
2013-5-29,86,72,58,68,62,58,99,76,44,30.16,30.05,9,2,15,0.06
2013-5-30,89,77,62,66,63,60,95,66,40,30.20,30.12,7,2,12,0.00
2013-5-31,92,78,65,71,64,56,94,65,34,30.18,30.02,7,2,13,0.00
2013-6-1,90,79,65,68,64,60,89,62,42,30.05,29.90,8,3,14,0.00
2013-6-2,84,78,74,67,65,61,77,64,49,29.90,29.80,11,5,21,0.00
2013-6-3,77,71,59,66,58,44,83,65,49,30.01,29.85,6,2,10,0.00
2013-6-4,75,63,50,47,43,38,74,50,28,30.20,30.01,6,3,12,0.00
2013-6-5,78,65,50,50,45,41,79,51,32,30.28,30.10,6,2,10,0.00
2013-6-6,68,64,60,59,54,47,90,72,49,30.14,29.95,7,4,12,0.23
2013-6-7,65,63,61,62,60,58,95,90,80,29.95,29.75,5,2,10,0.17
2013-6-8,74,66,61,62,60,56,96,82,58,30.15,29.77,5,2,8,0.00
2013-6-9,81,68,54,60,56,52,98,69,39,30.26,30.15,6,2,9,0.00
2013-6-10,69,66,64,66,63,58,98,89,70,30.18,29.80,8,3,15,1.52
2013-6-11,76,69,65,68,64,59,98,85,64,29.86,29.75,8,3,12,0.36
2013-6-12,80,71,63,61,58,54,87,66,42,29.92,29.84,5,2,9,0.00
2013-6-13,75,66,58,69,62,56,95,85,69,29.87,29.48,7,3,15,1.02
2013-6-14,74,65,57,60,56,52,95,74,52,30.02,29.68,6,2,11,0.09
2013-6-15,79,68,55,60,55,51,95,67,40,30.11,30.01,6,2,12,0.00
2013-6-16,79,69,59,66,60,53,92,74,55,30.07,29.85,9,3,13,0.00
2013-6-17,86,74,64,67,61,54,94,68,34,29.98,29.89,7,2,11,0.00
2013-6-18,78,69,61,67,61,57,92,76,59,29.98,29.86,5,1,8,0.00
2013-6-19,77,67,57,57,50,43,81,58,34,30.22,29.98,4,2,10,0.00
2013-6-20,82,68,53,61,54,48,87,63,38,30.31,30.22,6,2,11,0.00
2013-6-21,83,72,60,62,59,56,92,64,46,30.34,30.25,7,2,12,0.00
2013-6-22,85,74,61,67,62,55,88,66,49,30.29,30.13,7,2,11,0.00
2013-6-23,89,79,67,70,66,58,91,67,36,30.22,30.07,7,3,12,0.00
2013-6-24,88,76,67,72,67,63,94,76,55,30.15,30.02,6,2,12,0.33
2013-6-25,87,75,66,72,68,64,95,78,52,30.06,29.88,7,2,11,0.19
2013-6-26,81,73,66,69,67,64,95,82,63,29.93,29.85,5,2,10,0.00
2013-6-27,83,72,65,72,68,64,98,87,58,29.87,29.58,6,2,9,1.02
2013-6-28,81,73,67,69,67,66,97,84,62,29.62,29.51,7,2,9,0.10
2013-6-29,82,72,64,67,64,60,98,79,48,29.73,29.52,10,2,12,0.05
2013-6-30,85,72,64,72,68,64,99,87,60,29.91,29.72,8,2,12,0.07
2013-7-1,81,74,70,72,70,69,98,89,73,30.03,29.87,5,2,9,0.56
2013-7-2,82,77,72,73,71,69,96,83,70,30.17,30.02,6,3,13,0.03
2013-7-3,83,77,72,72,70,68,89,80,68,30.26,30.17,6,2,10,0.02
2013-7-4,89,80,72,73,71,69,94,77,52,30.26,30.17,7,3,12,0.00
2013-7-5,90,82,73,73,71,70,92,72,52,30.23,30.11,8,3,14,0.00
2013-7-6,91,81,73,74,72,69,93,75,50,30.21,30.07,7,2,11,0.00
2013-7-7,90,78,69,74,70,64,93,77,47,30.11,29.99,12,3,19,0.07
2013-7-8,84,74,68,71,67,65,95,82,56,30.12,30.05,6,2,11,0.00
2013-7-9,85,74,68,73,69,66,95,82,60,30.14,30.03,8,2,14,0.01
2013-7-10,85,76,69,72,70,66,95,81,61,30.04,29.86,11,3,16,0.04
2013-7-11,84,74,68,68,64,58,95,72,42,30.00,29.87,5,2,10,0.01
2013-7-12,80,72,66,69,64,58,93,76,63,30.14,30.00,5,2,9,0.08
2013-7-13,83,74,67,72,68,65,96,84,64,30.33,30.12,6,2,11,0.08
2013-7-14,90,80,71,74,71,68,96,76,51,30.38,30.29,7,2,12,0.00
2013-7-15,93,82,70,75,72,69,96,74,47,30.34,30.21,5,2,8,0.00
2013-7-16,92,83,72,73,69,64,93,65,40,30.32,30.21,6,2,10,0.00
2013-7-17,94,82,69,74,70,65,92,69,43,30.29,30.12,4,1,7,0.00
2013-7-18,91,80,75,75,73,71,92,81,53,30.15,30.11,3,1,8,0.00
2013-7-19,93,83,71,75,72,68,91,70,51,30.04,29.84,12,3,0,0.00
2013-7-20,88,79,74,74,71,67,87,76,57,29.92,29.81,12,2,0,0.02
2013-7-21,88,79,69,69,63,50,91,62,28,30.00,29.92,6,1,0,0.00
2013-7-22,86,76,71,75,70,66,96,85,59,29.97,29.76,11,2,0,0.75
2013-7-23,84,76,70,71,68,62,97,78,58,29.76,29.66,7,2,0,0.00
2013-7-24,76,68,60,64,56,50,84,67,50,30.06,29.73,7,3,8,0.00
2013-7-25,76,65,53,60,55,49,88,71,55,30.12,30.04,7,2,12,0.00
2013-7-26,81,69,56,60,55,48,92,65,32,30.16,30.06,5,1,10,0.00
2013-7-27,80,70,60,70,63,56,95,80,62,30.10,29.95,6,2,11,0.50
2013-7-28,78,71,66,69,67,62,96,86,66,30.02,29.93,6,2,12,0.24
2013-7-29,79,69,60,66,57,52,94,69,40,30.20,30.01,5,2,13,0.05
2013-7-30,77,67,57,60,57,55,93,71,48,30.28,30.19,6,1,8,0.00
2013-7-31,82,70,58,65,60,57,96,75,45,30.23,30.05,5,2,8,0.00
2013-8-1,76,72,67,69,66,64,95,83,74,30.05,29.85,6,2,9,0.11
2013-8-2,81,71,62,67,61,56,98,74,48,29.99,29.90,7,2,12,0.01
2013-8-3,77,69,63,68,63,56,97,82,63,29.99,29.92,8,2,14,0.25
2013-8-4,77,67,58,63,56,52,94,70,46,30.09,29.97,7,2,15,0.00
2013-8-5,74,65,56,56,53,50,87,67,43,30.17,30.08,4,1,8,0.00
2013-8-6,79,67,56,61,58,53,92,73,50,30.14,30.10,7,3,11,0.00
2013-8-7,73,70,66,69,65,61,91,86,79,30.15,30.05,6,3,10,0.01
2013-8-8,84,73,64,73,68,63,97,85,65,30.09,29.99,7,2,10,0.02
2013-8-9,82,76,72,75,72,70,96,89,72,30.01,29.86,5,2,10,0.68
2013-8-10,81,73,65,70,63,58,94,73,47,30.13,29.97,5,2,9,0.00
2013-8-11,80,68,60,64,60,55,91,75,46,30.20,30.07,4,1,7,0.00
2013-8-12,83,72,62,66,62,58,93,74,45,30.10,29.96,5,1,9,0.01
2013-8-13,82,72,65,72,63,53,96,77,54,29.96,29.72,7,2,9,0.04
2013-8-14,72,63,54,54,50,47,78,65,48,30.14,29.89,7,3,13,0.04
2013-8-15,75,63,50,55,50,47,93,68,40,30.25,30.13,5,1,10,0.00
2013-8-16,78,65,53,57,53,49,95,69,37,30.27,30.19,5,1,12,0.00
2013-8-17,80,68,56,60,56,49,93,69,36,30.35,30.26,5,1,9,0.00
2013-8-18,73,67,62,63,60,58,88,79,63,30.32,30.20,3,1,7,0.00
2013-8-19,77,67,60,65,61,58,95,81,58,30.22,30.10,6,1,11,0.00
2013-8-20,84,71,61,68,62,59,98,78,44,30.23,30.14,5,1,9,0.00
2013-8-21,87,73,59,66,62,58,98,73,41,30.27,30.09,7,1,10,0.00
2013-8-22,86,75,67,70,67,65,95,77,52,30.11,29.93,8,2,14,0.18
2013-8-23,80,71,65,66,60,51,97,73,38,30.20,29.99,5,1,9,0.19
2013-8-24,80,68,56,59,56,53,95,68,41,30.40,30.20,5,1,13,0.00
2013-8-25,81,68,54,60,56,51,96,67,36,30.47,30.28,5,2,14,0.00
2013-8-26,86,74,66,69,63,57,93,69,49,30.29,29.99,9,3,14,0.22
2013-8-27,84,76,68,70,68,66,95,78,59,30.00,29.91,5,1,8,0.23
2013-8-28,77,72,70,72,69,68,97,90,79,29.95,29.87,3,1,7,0.01
2013-8-29,84,73,67,70,68,65,97,84,59,30.08,29.93,4,1,7,0.01
2013-8-30,74,67,65,70,66,65,99,96,87,30.07,30.03,2,0,5,0.00
2013-8-31,80,77,74,72,70,69,86,80,75,29.89,29.87,4,3,7,0.00
2013-9-1,86,77,70,74,70,68,95,81,63,29.88,29.80,6,2,9,0.08
2013-9-2,86,75,67,74,69,66,97,82,58,29.85,29.72,10,2,13,0.05
2013-9-3,76,71,64,66,59,54,85,67,47,30.00,29.78,7,3,16,0.00
2013-9-4,80,68,58,59,57,54,91,68,42,30.11,30.00,6,3,15,0.00
2013-9-5,75,67,58,60,52,44,86,61,34,30.25,30.02,7,2,13,0.00
2013-9-6,70,59,47,48,44,39,90,61,36,30.36,30.20,5,1,11,0.00
2013-9-7,77,63,48,60,50,45,93,65,32,30.21,29.97,8,2,13,0.00
2013-9-8,75,66,57,64,55,44,91,69,40,30.18,29.92,8,3,13,0.00
2013-9-9,72,61,46,61,50,43,93,68,46,30.29,30.17,7,2,12,0.00
2013-9-10,90,77,65,72,67,61,91,73,55,30.18,30.07,7,2,12,0.00
2013-9-11,87,77,72,75,72,70,94,84,66,30.17,30.12,5,1,10,0.00
2013-9-13,69,61,55,53,48,-100,77,65,52,30.01,-32.77,8,-6,11,0.00
2013-9-14,58,54,47,49,46,44,91,76,60,30.23,30.01,6,2,10,0.00
2013-9-15,71,56,42,54,47,41,98,75,40,30.32,30.13,5,1,9,0.00
2013-9-16,68,60,50,57,52,41,96,76,57,30.39,30.11,6,2,10,0.06
2013-9-17,65,53,40,46,41,37,92,66,36,30.54,30.37,6,2,8,0.00
2013-9-18,72,56,42,48,45,41,96,70,38,30.41,30.22,5,2,10,0.00
2013-9-19,76,61,44,58,50,43,96,71,38,30.26,30.11,4,1,8,0.00
2013-9-20,80,65,51,60,55,49,96,73,44,30.16,29.99,6,2,10,0.00
2013-9-21,70,65,59,63,60,57,97,84,73,30.01,29.72,8,3,16,0.39
2013-9-22,64,58,52,59,49,41,97,74,48,30.05,29.77,8,3,12,0.01
2013-9-23,63,55,48,45,43,40,84,65,50,30.17,30.05,6,2,10,0.00
2013-9-24,72,55,41,50,44,40,96,71,37,30.19,30.00,5,1,8,0.00
2013-9-25,71,56,43,53,47,42,96,74,44,30.07,29.95,4,1,7,0.00
2013-9-26,74,59,45,54,50,44,98,75,45,30.16,30.03,4,1,9,0.00
2013-9-27,72,63,54,54,51,49,87,67,45,30.31,30.16,6,2,9,0.00
2013-9-28,71,61,55,56,52,49,89,72,48,30.39,30.29,5,2,8,0.00
2013-9-29,71,59,46,54,49,45,95,73,46,30.30,30.13,6,1,11,0.00
2013-9-30,72,60,48,55,52,47,97,76,49,30.16,30.02,5,1,9,0.00
2013-10-1,78,64,52,60,54,51,95,73,45,30.12,30.00,5,1,10,0.00
2013-10-2,82,67,51,63,57,50,96,74,48,30.12,30.02,7,2,13,0.00
2013-10-3,79,67,54,63,59,54,98,78,53,30.20,30.07,3,1,6,0.00
2013-10-4,81,70,62,67,64,60,96,81,58,30.14,30.04,5,1,7,0.02
2013-10-5,83,72,63,68,65,62,99,82,55,30.16,30.04,6,1,10,0.00
2013-10-6,72,69,66,67,65,64,95,88,84,30.07,30.04,5,1,7,0.00
2013-10-7,73,62,52,67,56,45,95,81,67,30.10,29.69,10,4,18,0.90
2013-10-8,67,56,44,48,45,41,96,70,40,30.40,30.10,4,1,9,0.00
2013-10-9,63,54,43,47,43,40,95,70,44,30.47,30.36,5,2,10,0.00
2013-10-10,60,53,48,52,47,42,96,80,55,30.37,30.17,7,1,10,0.60
2013-10-11,68,59,52,60,55,50,96,87,68,30.17,30.08,4,1,9,0.13
2013-10-12,75,65,57,59,47,33,95,57,22,30.29,30.13,9,3,15,0.00
2013-10-13,70,62,56,54,50,47,80,65,45,30.40,30.28,6,3,10,0.00
2013-10-14,66,58,51,55,51,48,94,78,56,30.42,30.29,5,1,6,0.00
2013-10-15,73,62,51,57,50,44,97,70,36,30.32,30.14,5,2,10,0.00
2013-10-16,64,61,56,58,50,39,86,68,49,30.14,29.94,5,2,8,0.00
2013-10-17,71,64,59,62,57,52,93,79,54,29.97,29.69,8,2,14,0.31
2013-10-18,61,55,46,54,45,40,85,70,47,30.06,29.81,6,3,12,0.00
2013-10-19,62,50,38,51,44,37,96,84,52,30.06,29.81,9,2,13,0.09
2013-10-20,59,50,43,48,39,36,89,67,43,30.13,29.88,6,3,10,0.01
2013-10-21,66,52,37,45,39,35,95,67,34,30.21,29.99,8,3,16,0.00
2013-10-22,59,53,44,47,40,30,79,61,35,29.99,29.84,6,2,10,0.00
2013-10-23,49,42,36,40,35,32,89,76,52,29.91,29.76,6,2,10,0.00
2013-10-24,48,42,37,35,32,27,87,68,48,30.13,29.90,7,3,13,0.00
2013-10-25,50,42,35,39,33,31,87,71,53,30.32,30.13,7,2,12,0.00
2013-10-26,52,44,33,33,29,25,86,59,35,30.32,29.96,13,5,24,0.00
2013-10-27,52,47,39,36,33,31,74,59,47,30.20,29.96,6,3,10,0.00
2013-10-28,58,44,31,38,34,29,95,70,45,30.40,30.20,6,1,10,0.00
2013-10-29,54,46,38,37,34,31,85,63,46,30.50,30.39,4,1,8,0.00
2013-10-30,63,51,41,49,41,33,88,70,47,30.39,30.19,4,1,8,0.00
2013-10-31,63,56,47,59,53,44,94,89,85,30.25,29.76,8,3,15,0.20
2013-11-1,69,62,50,61,51,42,92,70,40,29.76,29.50,12,6,30,0.45
2013-11-2,58,50,44,47,43,40,95,78,57,29.90,29.70,5,1,9,0.00
2013-11-3,49,41,31,44,29,21,81,62,43,30.58,29.90,9,4,13,0.00
2013-11-4,44,36,26,25,21,17,85,58,36,30.74,30.58,6,1,12,0.00
2013-11-5,55,44,34,42,34,22,77,66,52,30.71,30.50,8,2,13,0.00
2013-11-6,61,55,49,51,47,42,84,75,66,30.52,30.03,9,4,14,0.00
2013-11-7,60,51,39,54,45,30,96,81,63,30.07,29.90,9,4,13,0.50
2013-11-8,46,40,35,35,31,27,92,69,56,30.33,30.06,9,4,16,0.00
2013-11-9,49,43,35,30,29,27,74,58,45,30.39,30.01,7,4,12,0.00
2013-11-10,53,46,41,37,31,29,66,56,46,30.21,29.95,11,4,23,0.00
2013-11-11,49,44,35,34,31,28,78,61,47,30.31,30.04,10,4,14,0.00
2013-11-12,48,34,29,37,22,13,89,61,39,30.45,30.05,10,5,19,0.01
2013-11-13,38,32,26,22,18,12,71,58,46,30.53,30.38,7,3,13,0.00
2013-11-14,51,39,28,22,18,11,73,47,20,30.38,30.25,8,3,12,0.00
2013-11-15,54,40,28,31,24,20,83,57,29,30.33,30.23,5,1,9,0.00
2013-11-16,59,49,38,47,39,27,89,69,49,30.39,30.28,5,1,9,0.00
2013-11-17,61,56,50,57,52,46,91,88,84,30.28,29.69,13,5,21,0.07
2013-11-18,61,54,45,58,38,27,91,58,35,29.95,29.62,13,6,20,0.13
2013-11-19,45,39,30,30,25,22,76,57,48,30.50,29.95,11,5,21,0.00
2013-11-20,44,35,26,25,19,11,82,55,30,30.65,30.49,8,2,14,0.00
2013-11-21,46,38,26,36,27,13,77,66,44,30.67,30.43,6,1,9,0.00
2013-11-22,50,46,41,46,42,36,95,88,75,30.44,30.07,8,2,13,0.06
2013-11-23,46,35,24,39,23,5,85,62,42,30.23,30.03,13,7,23,0.00
2013-11-24,27,23,19,11,6,1,63,48,33,30.53,30.22,11,6,19,0.00
2013-11-25,33,26,19,15,12,10,79,57,39,30.59,30.36,9,4,18,0.00
2013-11-26,41,32,27,40,27,12,98,84,41,30.38,29.68,8,2,13,0.88
2013-11-27,45,35,29,43,30,18,98,84,61,29.98,29.59,11,5,19,0.37
2013-11-28,32,28,26,22,19,16,79,67,54,30.54,29.98,10,5,19,0.00
2013-11-29,34,29,23,22,19,16,83,68,54,30.83,30.53,6,2,10,0.00
2013-11-30,35,27,17,26,19,14,89,74,49,30.83,30.45,8,2,13,0.00
2013-12-1,32,30,28,26,25,24,88,83,77,30.45,30.34,1,0,5,0.00
2013-12-2,42,41,35,34,33,32,89,75,72,29.99,29.96,1,0,0,0.00
2013-12-3,49,40,34,36,34,31,92,80,59,30.09,29.97,8,1,0,0.00
2013-12-4,44,35,32,39,33,31,97,94,81,30.19,30.09,4,1,3,0.00
2013-12-5,54,53,51,52,52,51,97,96,94,30.02,29.97,4,0,5,0.21
2013-12-6,52,42,32,52,39,30,98,92,82,30.28,29.94,10,2,14,0.76
2013-12-7,36,32,26,31,26,16,95,80,64,30.65,30.25,7,2,10,0.03
2013-12-8,28,25,21,25,20,15,94,81,66,30.68,30.41,4,1,9,0.00
2013-12-9,35,32,26,33,31,25,97,95,84,30.41,30.08,7,2,10,0.08
2013-12-10,34,31,26,30,22,11,91,71,48,30.23,30.01,8,4,18,0.01
2013-12-11,32,27,22,19,14,11,73,60,43,30.42,30.18,8,4,16,0.00
2013-12-12,26,22,19,19,9,4,79,59,46,30.37,30.13,9,4,13,0.00
2013-12-13,33,28,19,19,14,7,61,54,49,30.29,30.11,10,4,15,0.00
2013-12-14,31,26,23,26,21,16,94,84,58,30.37,29.76,11,3,20,0.00
2013-12-15,36,29,24,31,25,20,95,85,69,29.85,29.59,8,3,15,0.02
2013-12-16,28,22,15,20,11,10,83,64,53,30.18,29.85,9,4,14,0.00
2013-12-17,26,21,15,22,18,10,93,86,77,30.17,29.95,3,1,7,0.00
2013-12-18,34,27,18,24,20,16,94,78,60,30.16,29.97,7,2,12,0.00
2013-12-19,43,31,19,29,23,17,91,74,54,30.13,30.00,3,0,6,0.09
2013-12-20,40,36,31,34,31,27,87,82,71,30.07,29.92,2,0,4,0.13
2013-12-21,47,41,36,42,38,33,97,89,76,29.94,29.81,4,0,6,0.10
2013-12-22,67,60,42,62,56,41,99,86,73,29.88,29.66,11,5,20,0.04
2013-12-23,59,49,34,55,44,25,97,84,64,30.17,29.85,10,3,22,0.18
2013-12-24,35,29,21,27,21,14,93,74,58,30.41,30.12,9,3,15,0.00
2013-12-25,26,20,14,15,11,7,77,66,59,30.53,30.34,7,2,10,0.00
2013-12-26,34,28,24,28,22,14,92,77,61,30.34,30.15,8,4,11,0.03
2013-12-27,39,39,39,37,37,37,94,94,94,29.72,29.72,1,1,0,0.00
2013-12-28,39,39,39,37,37,37,94,94,94,29.72,29.72,1,1,0,0.00
2013-12-29,39,39,38,38,37,37,95,94,94,29.73,29.71,4,1,0,0.00
2013-12-30,42,34,25,38,26,14,95,73,57,30.15,29.72,12,4,0,0.00
2013-12-31,31,24,22,25,14,10,88,64,54,30.28,30.02,12,4,12,0.00
2014-1-1,29,26,22,22,19,12,84,74,64,30.38,30.16,5,2,10,0.00
2014-1-2,28,26,18,24,22,14,92,86,79,30.16,29.70,5,2,11,0.00